createdAt,value
2023-05-24T00:00:33.434Z,7.10
2023-05-24T00:03:00.644Z,7.10
2023-05-24T00:05:31.229Z,7.00
2023-05-24T00:07:59.470Z,7.00
2023-05-24T00:10:26.697Z,7.00
2023-05-24T00:12:53.752Z,7.00
2023-05-24T00:15:20.989Z,7.00
2023-05-24T00:17:48.259Z,7.00
2023-05-24T00:20:15.585Z,7.10
2023-05-24T00:22:42.707Z,7.10
2023-05-24T00:25:10.147Z,7.10
2023-05-24T00:27:37.586Z,7.20
2023-05-24T00:30:06.836Z,7.20
2023-05-24T00:32:34.272Z,7.20
2023-05-24T00:35:01.357Z,7.30
2023-05-24T00:37:29.577Z,7.40
2023-05-24T00:39:56.899Z,7.40
2023-05-24T00:42:24.294Z,7.50
2023-05-24T00:44:51.459Z,7.50
2023-05-24T00:47:19.463Z,7.60
2023-05-24T00:49:46.991Z,7.60
2023-05-24T00:52:14.447Z,7.70
2023-05-24T00:54:41.780Z,7.70
2023-05-24T00:57:09.034Z,7.70
2023-05-24T00:59:36.728Z,7.60
2023-05-24T01:02:05.419Z,7.60
2023-05-24T01:04:33.266Z,7.50
2023-05-24T01:07:26.873Z,7.50
2023-05-24T01:10:04.110Z,7.40
2023-05-24T01:12:53.684Z,7.30
2023-05-24T01:15:43.751Z,7.30
2023-05-24T01:18:26.406Z,7.20
2023-05-24T01:21:48.327Z,7.20
2023-05-24T01:25:03.815Z,7.20
2023-05-24T01:27:34.420Z,7.10
2023-05-24T01:30:04.344Z,7.10
2023-05-24T01:32:32.009Z,7.10
2023-05-24T01:34:59.172Z,7.10
2023-05-24T01:37:26.364Z,7.10
2023-05-24T01:39:53.815Z,7.10
2023-05-24T01:42:45.056Z,7.10
2023-05-24T01:45:38.647Z,7.10
2023-05-24T01:48:38.327Z,7.10
2023-05-24T01:51:11.685Z,7.10
2023-05-24T01:53:47.671Z,7.20
2023-05-24T01:56:17.581Z,7.20
2023-05-24T01:58:46.900Z,7.10
2023-05-24T02:01:14.925Z,7.10
2023-05-24T02:03:42.270Z,7.10
2023-05-24T02:06:10.721Z,7.10
2023-05-24T02:08:40.228Z,7.00
2023-05-24T02:11:07.351Z,7.00
2023-05-24T02:13:34.370Z,7.00
2023-05-24T02:16:01.826Z,7.00
2023-05-24T02:18:34.634Z,7.00
2023-05-24T02:21:02.815Z,7.00
2023-05-24T02:23:30.077Z,7.00
2023-05-24T02:25:59.188Z,6.90
2023-05-24T02:28:26.281Z,6.90
2023-05-24T02:30:53.517Z,6.90
2023-05-24T02:33:21.163Z,7.00
2023-05-24T02:35:48.431Z,7.10
2023-05-24T02:38:15.489Z,7.10
2023-05-24T02:40:42.933Z,7.20
2023-05-24T02:43:10.298Z,7.20
2023-05-24T02:45:37.734Z,7.30
2023-05-24T02:48:05.156Z,7.30
2023-05-24T02:50:32.282Z,7.30
2023-05-24T02:52:59.328Z,7.30
2023-05-24T02:55:26.887Z,7.30
2023-05-24T02:57:54.245Z,7.30
2023-05-24T03:00:21.758Z,7.30
2023-05-24T03:02:51.185Z,7.30
2023-05-24T03:05:18.950Z,7.30
2023-05-24T03:07:46.051Z,7.40
2023-05-24T03:10:15.145Z,7.30
2023-05-24T03:12:43.109Z,7.30
2023-05-24T03:15:11.527Z,7.30
2023-05-24T03:17:38.663Z,7.40
2023-05-24T03:20:07.083Z,7.40
2023-05-24T03:22:34.233Z,7.40
2023-05-24T03:25:03.345Z,7.50
2023-05-24T03:27:30.650Z,7.50
2023-05-24T03:29:57.813Z,7.50
2023-05-24T03:32:27.921Z,7.50
2023-05-24T03:34:56.778Z,7.50
2023-05-24T03:37:24.004Z,7.60
2023-05-24T03:39:53.373Z,7.60
2023-05-24T03:42:46.398Z,7.70
2023-05-24T03:45:17.515Z,7.70
2023-05-24T03:47:46.662Z,7.70
2023-05-24T03:50:14.385Z,7.80
2023-05-24T03:52:42.890Z,7.80
2023-05-24T03:55:09.998Z,7.90
2023-05-24T03:57:37.132Z,7.90
2023-05-24T04:00:07.163Z,7.90
2023-05-24T04:02:41.425Z,8.00
2023-05-24T04:05:10.228Z,8.00
2023-05-24T04:07:39.812Z,8.10
2023-05-24T04:10:08.110Z,8.10
2023-05-24T04:12:35.694Z,8.10
2023-05-24T04:15:02.890Z,8.20
2023-05-24T04:17:32.824Z,8.20
2023-05-24T04:20:00.371Z,8.20
2023-05-24T04:22:27.589Z,8.20
2023-05-24T04:24:54.691Z,8.30
2023-05-24T04:27:22.178Z,8.30
2023-05-24T04:29:50.235Z,8.30
2023-05-24T04:32:17.941Z,8.40
2023-05-24T04:34:46.444Z,8.50
2023-05-24T04:37:17.404Z,8.50
2023-05-24T04:39:46.698Z,8.60
2023-05-24T04:42:14.504Z,8.60
2023-05-24T04:44:41.643Z,8.60
2023-05-24T04:47:08.997Z,8.70
2023-05-24T04:49:36.186Z,8.80
2023-05-24T04:52:03.295Z,8.80
2023-05-24T04:54:30.396Z,8.90
2023-05-24T04:56:57.548Z,9.00
2023-05-24T04:59:25.203Z,9.00
2023-05-24T05:01:52.362Z,9.00
2023-05-24T05:04:19.590Z,9.10
2023-05-24T05:06:48.221Z,9.10
2023-05-24T05:09:15.952Z,9.20
2023-05-24T05:11:43.453Z,9.20
2023-05-24T05:14:11.653Z,9.30
2023-05-24T05:16:39.479Z,9.40
2023-05-24T05:19:06.732Z,9.50
2023-05-24T05:21:34.529Z,9.60
2023-05-24T05:24:02.255Z,9.70
2023-05-24T05:26:29.997Z,9.80
2023-05-24T05:28:58.042Z,9.80
2023-05-24T05:31:25.701Z,9.90
2023-05-24T05:33:52.963Z,10.00
2023-05-24T05:36:20.198Z,10.10
2023-05-24T05:38:47.245Z,10.20
2023-05-24T05:41:14.363Z,10.30
2023-05-24T05:43:41.455Z,10.40
2023-05-24T05:46:08.604Z,10.40
2023-05-24T05:48:35.694Z,10.50
2023-05-24T05:51:02.811Z,10.60
2023-05-24T05:53:29.990Z,10.50
2023-05-24T05:55:57.130Z,10.50
2023-05-24T05:58:24.266Z,10.60
2023-05-24T06:00:51.704Z,10.70
2023-05-24T06:03:19.190Z,10.90
2023-05-24T06:05:46.453Z,10.90
2023-05-24T06:08:13.484Z,11.20
2023-05-24T06:10:40.712Z,11.30
2023-05-24T06:13:07.957Z,11.30
2023-05-24T06:15:34.952Z,11.50
2023-05-24T06:18:02.436Z,11.70
2023-05-24T06:20:29.734Z,11.70
2023-05-24T06:22:57.397Z,11.90
2023-05-24T06:25:24.622Z,12.00
2023-05-24T06:27:51.910Z,12.00
2023-05-24T06:30:19.316Z,12.10
2023-05-24T06:32:46.479Z,12.30
2023-05-24T06:35:14.218Z,12.40
2023-05-24T06:37:41.402Z,12.30
2023-05-24T06:40:11.549Z,12.40
2023-05-24T06:42:39.736Z,12.30
2023-05-24T06:45:08.514Z,12.20
2023-05-24T06:47:36.326Z,12.20
2023-05-24T06:50:05.513Z,12.10
2023-05-24T06:53:06.099Z,12.20
2023-05-24T06:55:34.065Z,12.30
2023-05-24T06:58:01.633Z,12.40
2023-05-24T07:00:28.728Z,12.50
2023-05-24T07:02:56.576Z,12.60
2023-05-24T07:05:24.068Z,12.70
2023-05-24T07:07:56.797Z,13.00
2023-05-24T07:10:24.135Z,12.70
2023-05-24T07:13:04.046Z,12.80
2023-05-24T07:15:41.954Z,12.70
2023-05-24T07:18:09.584Z,12.50
2023-05-24T07:20:37.093Z,12.60
2023-05-24T07:23:04.679Z,12.70
2023-05-24T07:25:45.025Z,12.70
2023-05-24T07:28:14.257Z,13.20
2023-05-24T07:30:41.894Z,13.40
2023-05-24T07:33:22.066Z,13.90
2023-05-24T07:35:51.768Z,14.30
2023-05-24T07:38:29.375Z,14.30
2023-05-24T07:41:07.672Z,14.60
2023-05-24T07:43:41.479Z,14.90
2023-05-24T07:46:10.687Z,14.90
2023-05-24T07:48:38.678Z,15.10
2023-05-24T07:51:07.727Z,14.90
2023-05-24T07:53:37.870Z,14.80
2023-05-24T07:56:22.614Z,14.60
2023-05-24T07:58:52.313Z,14.50
2023-05-24T08:01:39.893Z,14.40
2023-05-24T08:04:12.588Z,14.20
2023-05-24T08:06:41.797Z,14.00
2023-05-24T08:09:09.393Z,13.80
2023-05-24T08:11:36.905Z,13.70
2023-05-24T08:14:04.378Z,13.50
2023-05-24T08:16:32.633Z,13.40
2023-05-24T08:19:02.586Z,13.40
2023-05-24T08:21:31.465Z,13.60
2023-05-24T08:24:10.792Z,13.80
2023-05-24T08:26:38.718Z,13.90
2023-05-24T08:29:06.961Z,14.00
2023-05-24T08:31:42.713Z,14.30
2023-05-24T08:34:15.700Z,14.40
2023-05-24T08:36:44.007Z,14.40
2023-05-24T08:39:20.376Z,14.50
2023-05-24T08:42:00.931Z,14.50
2023-05-24T08:44:58.229Z,14.60
2023-05-24T08:47:27.066Z,14.50
2023-05-24T08:49:56.098Z,14.50
2023-05-24T08:52:24.105Z,14.60
2023-05-24T08:54:53.186Z,14.60
2023-05-24T08:57:22.256Z,14.50
2023-05-24T08:59:49.991Z,14.70
2023-05-24T09:02:18.161Z,14.90
2023-05-24T09:04:49.042Z,15.00
2023-05-24T09:07:23.529Z,15.20
2023-05-24T09:10:08.567Z,15.40
2023-05-24T09:12:39.231Z,15.70
2023-05-24T09:15:08.913Z,15.80
2023-05-24T09:17:37.884Z,15.80
2023-05-24T09:20:11.397Z,15.80
2023-05-24T09:22:43.110Z,15.60
2023-05-24T09:25:14.008Z,15.60
2023-05-24T09:27:41.549Z,15.70
2023-05-24T09:30:10.860Z,16.00
2023-05-24T09:32:38.478Z,16.00
2023-05-24T09:35:10.206Z,15.90
2023-05-24T09:37:38.872Z,15.90
2023-05-24T09:40:09.326Z,15.80
2023-05-24T09:42:37.509Z,15.90
2023-05-24T09:45:12.676Z,15.70
2023-05-24T09:47:41.955Z,15.80
2023-05-24T09:50:15.760Z,15.90
2023-05-24T09:52:44.056Z,15.90
2023-05-24T09:55:21.488Z,15.60
2023-05-24T09:58:03.080Z,15.50
2023-05-24T10:00:35.160Z,15.50
2023-05-24T10:03:06.952Z,15.60
2023-05-24T10:05:35.908Z,15.90
2023-05-24T10:08:06.873Z,16.30
2023-05-24T10:10:34.924Z,16.40
2023-05-24T10:13:03.039Z,16.20
2023-05-24T10:15:30.795Z,16.50
2023-05-24T10:18:11.519Z,16.70
2023-05-24T10:20:41.707Z,16.70
2023-05-24T10:23:10.851Z,16.30
2023-05-24T10:25:46.681Z,16.10
2023-05-24T10:28:16.243Z,15.90
2023-05-24T10:30:56.458Z,16.00
2023-05-24T10:33:24.982Z,16.50
2023-05-24T10:35:53.855Z,16.70
2023-05-24T10:38:24.982Z,17.20
2023-05-24T10:40:52.731Z,17.40
2023-05-24T10:43:21.637Z,17.10
2023-05-24T10:45:50.626Z,16.80
2023-05-24T10:48:27.868Z,16.80
2023-05-24T10:50:56.170Z,17.10
2023-05-24T10:53:27.730Z,17.30
2023-05-24T10:56:06.828Z,17.20
2023-05-24T10:58:54.922Z,17.00
2023-05-24T11:01:35.016Z,16.70
2023-05-24T11:04:11.254Z,16.60
2023-05-24T11:07:03.827Z,16.70
2023-05-24T11:09:34.963Z,16.60
2023-05-24T11:12:17.316Z,16.90
2023-05-24T11:14:50.519Z,17.00
2023-05-24T11:17:21.402Z,16.80
2023-05-24T11:19:54.489Z,16.70
2023-05-24T11:22:25.422Z,16.60
2023-05-24T11:24:53.790Z,16.50
2023-05-24T11:27:21.001Z,16.50
2023-05-24T11:29:48.767Z,16.70
2023-05-24T11:32:21.326Z,16.60
2023-05-24T11:34:49.529Z,16.60
2023-05-24T11:37:18.297Z,16.30
2023-05-24T11:39:52.742Z,16.40
2023-05-24T11:42:22.978Z,16.40
2023-05-24T11:44:50.540Z,16.40
2023-05-24T11:47:20.549Z,16.20
2023-05-24T11:49:51.610Z,16.30
2023-05-24T11:52:18.738Z,16.80
2023-05-24T11:54:46.135Z,17.10
2023-05-24T11:57:14.021Z,17.70
2023-05-24T11:59:41.950Z,18.00
2023-05-24T12:02:09.523Z,17.90
2023-05-24T12:04:36.688Z,17.70
2023-05-24T12:07:03.885Z,17.40
2023-05-24T12:09:31.070Z,17.20
2023-05-24T12:11:58.591Z,16.80
2023-05-24T12:14:33.717Z,16.60
2023-05-24T12:17:01.319Z,16.70
2023-05-24T12:19:37.293Z,16.40
2023-05-24T12:22:07.041Z,16.20
2023-05-24T12:24:35.308Z,16.00
2023-05-24T12:27:07.780Z,15.80
2023-05-24T12:29:41.853Z,15.80
2023-05-24T12:32:15.120Z,15.80
2023-05-24T12:34:44.373Z,15.90
2023-05-24T12:37:12.659Z,15.80
2023-05-24T12:39:42.555Z,15.70
2023-05-24T12:42:13.146Z,15.90
2023-05-24T12:44:40.506Z,15.90
2023-05-24T12:47:08.490Z,15.70
2023-05-24T12:49:36.282Z,15.60
2023-05-24T12:52:03.827Z,15.40
2023-05-24T12:54:31.594Z,15.20
2023-05-24T12:57:00.644Z,15.10
2023-05-24T12:59:28.732Z,15.00
2023-05-24T13:01:56.714Z,15.10
2023-05-24T13:04:27.130Z,15.00
2023-05-24T13:06:54.590Z,14.80
2023-05-24T13:09:23.326Z,14.80
2023-05-24T13:11:51.329Z,14.80
2023-05-24T13:14:19.849Z,14.80
2023-05-24T13:16:47.681Z,14.80
2023-05-24T13:19:14.953Z,14.90
2023-05-24T13:21:42.628Z,14.90
2023-05-24T13:24:09.840Z,15.00
2023-05-24T13:26:38.117Z,15.00
2023-05-24T13:31:37.885Z,15.20
2023-05-24T13:34:05.608Z,15.20
2023-05-24T13:36:33.578Z,15.20
2023-05-24T13:41:31.677Z,15.30
2023-05-24T13:43:58.812Z,15.40
2023-05-24T13:46:25.986Z,15.40
2023-05-24T13:48:53.200Z,15.40
2023-05-24T13:51:21.147Z,15.40
2023-05-24T13:53:48.558Z,15.50
2023-05-24T13:56:16.454Z,15.70
2023-05-24T13:58:43.607Z,15.70
2023-05-24T14:01:11.382Z,15.60
2023-05-24T14:03:40.993Z,15.80
2023-05-24T14:06:09.272Z,15.70
2023-05-24T14:08:36.788Z,15.80
2023-05-24T14:11:03.872Z,15.60
2023-05-24T14:16:05.410Z,15.40
2023-05-24T14:18:34.224Z,15.70
2023-05-24T14:21:01.936Z,15.70
2023-05-24T14:23:32.007Z,15.70
2023-05-24T14:26:00.050Z,15.60
2023-05-24T14:28:27.604Z,15.60
2023-05-24T14:30:54.748Z,15.70
2023-05-24T14:33:23.391Z,15.70
2023-05-24T14:35:51.774Z,15.70
2023-05-24T14:38:19.227Z,15.60
2023-05-24T14:40:48.986Z,15.60
2023-05-24T14:43:16.282Z,15.50
2023-05-24T14:45:43.841Z,15.40
2023-05-24T14:48:12.453Z,15.50
2023-05-24T14:50:41.133Z,15.60
2023-05-24T14:53:11.841Z,15.60
2023-05-24T14:55:42.040Z,15.60
2023-05-24T14:58:11.393Z,15.40
2023-05-24T15:00:39.895Z,15.40
2023-05-24T15:03:08.882Z,15.30
2023-05-24T15:05:36.794Z,15.20
2023-05-24T15:08:05.614Z,15.20
2023-05-24T15:10:33.351Z,15.20
2023-05-24T15:13:01.461Z,15.10
2023-05-24T15:15:28.844Z,15.30
2023-05-24T15:17:57.342Z,15.40
2023-05-24T15:22:52.677Z,15.40
2023-05-24T15:25:19.738Z,15.50
2023-05-24T15:27:48.042Z,15.50
2023-05-24T15:30:17.288Z,15.60
2023-05-24T15:32:46.111Z,15.80
2023-05-24T15:35:13.297Z,15.80
2023-05-24T15:37:40.759Z,15.90
2023-05-24T15:40:10.619Z,16.00
2023-05-24T15:42:38.191Z,16.00
2023-05-24T15:45:06.403Z,15.90
2023-05-24T15:47:39.776Z,16.10
2023-05-24T15:50:10.374Z,16.00
2023-05-24T15:52:37.693Z,16.00
2023-05-24T15:55:05.551Z,16.00
2023-05-24T15:57:32.633Z,16.10
2023-05-24T15:59:59.677Z,16.20
2023-05-24T16:02:30.621Z,16.20
2023-05-24T16:04:58.261Z,16.70
2023-05-24T16:07:26.058Z,17.00
2023-05-24T16:09:53.175Z,17.20
2023-05-24T16:12:20.391Z,17.00
2023-05-24T16:14:47.569Z,16.80
2023-05-24T16:17:17.606Z,16.60
2023-05-24T16:19:49.454Z,16.50
2023-05-24T16:22:16.773Z,16.50
2023-05-24T16:24:44.632Z,16.50
2023-05-24T16:27:11.848Z,16.50
2023-05-24T16:29:39.374Z,16.40
2023-05-24T16:32:07.625Z,16.30
2023-05-24T16:34:52.178Z,16.30
2023-05-24T16:37:22.084Z,16.20
2023-05-24T16:39:49.164Z,16.10
2023-05-24T16:42:16.261Z,15.90
2023-05-24T16:44:43.619Z,15.90
2023-05-24T16:47:10.899Z,16.10
2023-05-24T16:49:38.047Z,16.10
2023-05-24T16:52:05.269Z,16.10
2023-05-24T16:54:32.322Z,16.10
2023-05-24T16:56:59.490Z,16.10
2023-05-24T16:59:26.604Z,16.10
2023-05-24T17:01:53.729Z,16.20
2023-05-24T17:04:20.848Z,16.00
2023-05-24T17:06:47.988Z,16.00
2023-05-24T17:09:15.083Z,16.00
2023-05-24T17:11:42.132Z,16.00
2023-05-24T17:14:09.528Z,15.90
2023-05-24T17:16:36.942Z,15.70
2023-05-24T17:19:04.442Z,15.60
2023-05-24T17:21:31.578Z,15.30
2023-05-24T17:23:59.831Z,15.30
2023-05-24T17:26:27.553Z,15.10
2023-05-24T17:28:55.115Z,15.10
2023-05-24T17:31:22.422Z,15.10
2023-05-24T17:33:49.544Z,15.10
2023-05-24T17:36:16.729Z,15.20
2023-05-24T17:38:43.753Z,15.20
2023-05-24T17:41:10.970Z,15.20
2023-05-24T17:43:40.064Z,15.30
2023-05-24T17:46:07.537Z,15.40
2023-05-24T17:48:39.835Z,15.40
2023-05-24T17:51:09.050Z,15.30
2023-05-24T17:53:38.015Z,15.10
2023-05-24T17:56:06.130Z,15.00
2023-05-24T17:58:36.419Z,14.90
2023-05-24T18:01:05.604Z,14.80
2023-05-24T18:03:33.989Z,14.60
2023-05-24T18:06:01.444Z,14.50
2023-05-24T18:08:28.665Z,14.50
2023-05-24T18:10:55.801Z,14.40
2023-05-24T18:13:22.914Z,14.40
2023-05-24T18:15:50.494Z,14.30
2023-05-24T18:18:18.098Z,14.30
2023-05-24T18:20:45.422Z,14.20
2023-05-24T18:23:12.530Z,14.10
2023-05-24T18:25:39.599Z,14.00
2023-05-24T18:28:07.354Z,13.90
2023-05-24T18:30:34.446Z,13.90
2023-05-24T18:33:06.956Z,13.80
2023-05-24T18:35:35.763Z,13.70
2023-05-24T18:38:04.323Z,13.60
2023-05-24T18:40:32.438Z,13.60
2023-05-24T18:42:59.581Z,13.50
2023-05-24T18:45:26.574Z,13.50
2023-05-24T18:47:54.296Z,13.40
2023-05-24T18:50:23.471Z,13.30
2023-05-24T18:52:50.888Z,13.40
2023-05-24T18:55:18.106Z,13.30
2023-05-24T18:57:45.354Z,13.20
2023-05-24T19:00:13.168Z,13.20
2023-05-24T19:02:40.888Z,13.10
2023-05-24T19:05:08.866Z,13.00
2023-05-24T19:07:36.756Z,13.00
2023-05-24T19:10:04.578Z,12.90
2023-05-24T19:12:31.927Z,12.90
2023-05-24T19:14:59.759Z,12.80
2023-05-24T19:17:26.997Z,12.70
2023-05-24T19:19:54.555Z,12.70
2023-05-24T19:22:21.672Z,12.60
2023-05-24T19:24:48.789Z,12.50
2023-05-24T19:27:15.818Z,12.50
2023-05-24T19:29:42.971Z,12.40
2023-05-24T19:32:11.460Z,12.40
2023-05-24T19:34:42.140Z,12.30
2023-05-24T19:37:09.874Z,12.30
2023-05-24T19:39:37.754Z,12.20
2023-05-24T19:42:06.536Z,12.10
2023-05-24T19:44:33.584Z,12.00
2023-05-24T19:47:00.768Z,12.00
2023-05-24T19:49:27.806Z,11.90
2023-05-24T19:51:54.994Z,11.90
2023-05-24T19:54:22.876Z,11.80
2023-05-24T19:56:51.875Z,11.70
2023-05-24T19:59:19.390Z,11.70
2023-05-24T20:01:46.847Z,11.60
2023-05-24T20:04:14.279Z,11.50
2023-05-24T20:06:41.520Z,11.50
2023-05-24T20:09:09.536Z,11.40
2023-05-24T20:11:36.790Z,11.30
2023-05-24T20:14:03.871Z,11.20
2023-05-24T20:16:31.472Z,11.10
2023-05-24T20:18:58.582Z,11.00
2023-05-24T20:21:25.892Z,10.90
2023-05-24T20:23:57.673Z,10.90
2023-05-24T20:26:26.242Z,10.80
2023-05-24T20:28:53.599Z,10.80
2023-05-24T20:31:20.764Z,10.70
2023-05-24T20:33:51.454Z,10.70
2023-05-24T20:36:18.651Z,10.70
2023-05-24T20:38:45.754Z,10.70
2023-05-24T20:41:12.778Z,10.70
2023-05-24T20:43:39.944Z,10.70
2023-05-24T20:46:07.335Z,10.70
2023-05-24T20:48:34.645Z,10.70
2023-05-24T20:51:01.725Z,10.70
2023-05-24T20:53:28.859Z,10.80
2023-05-24T20:55:56.661Z,10.80
2023-05-24T20:58:23.835Z,10.90
2023-05-24T21:03:18.899Z,10.90
2023-05-24T21:05:46.151Z,10.90
2023-05-24T21:08:13.358Z,10.90
2023-05-24T21:10:40.567Z,10.90
2023-05-24T21:13:07.672Z,10.90
2023-05-24T21:15:35.318Z,10.90
2023-05-24T21:18:04.027Z,10.80
2023-05-24T21:20:31.288Z,10.80
2023-05-24T21:22:58.543Z,10.80
2023-05-24T21:25:25.745Z,10.70
2023-05-24T21:27:52.733Z,10.60
2023-05-24T21:30:19.879Z,10.50
2023-05-24T21:32:47.099Z,10.40
2023-05-24T21:35:14.262Z,10.40
2023-05-24T21:37:41.308Z,10.30
2023-05-24T21:40:09.098Z,10.20
2023-05-24T21:42:37.215Z,10.20
2023-05-24T21:45:05.041Z,10.00
2023-05-24T21:47:33.187Z,10.00
2023-05-24T21:50:00.421Z,9.90
2023-05-24T21:52:27.431Z,9.80
2023-05-24T21:54:54.405Z,9.70
2023-05-24T21:57:21.462Z,9.70
2023-05-24T21:59:48.585Z,9.60
2023-05-24T22:02:15.727Z,9.50
2023-05-24T22:04:42.793Z,9.50
2023-05-24T22:07:09.863Z,9.50
2023-05-24T22:09:36.908Z,9.40
2023-05-24T22:12:04.291Z,9.40
2023-05-24T22:14:31.792Z,9.30
2023-05-24T22:16:58.888Z,9.30
2023-05-24T22:19:39.964Z,9.20
2023-05-24T22:22:08.815Z,9.20
2023-05-24T22:24:36.160Z,9.10
2023-05-24T22:27:03.813Z,9.10
2023-05-24T22:29:31.135Z,9.00
2023-05-24T22:31:58.248Z,9.00
2023-05-24T22:34:29.302Z,8.90
2023-05-24T22:36:57.747Z,8.90
2023-05-24T22:39:25.243Z,8.90
2023-05-24T22:41:53.019Z,8.90
2023-05-24T22:44:20.358Z,8.80
2023-05-24T22:46:50.371Z,8.80
2023-05-24T22:49:19.544Z,8.80
2023-05-24T22:51:48.308Z,8.70
2023-05-24T22:54:18.100Z,8.70
2023-05-24T22:56:46.269Z,8.70
2023-05-24T22:59:13.373Z,8.70
2023-05-24T23:01:40.548Z,8.60
2023-05-24T23:04:20.443Z,8.60
2023-05-24T23:06:52.576Z,8.50
2023-05-24T23:09:29.045Z,8.50
2023-05-24T23:11:58.440Z,8.50
2023-05-24T23:14:25.916Z,8.50
2023-05-24T23:16:53.084Z,8.40
2023-05-24T23:19:22.100Z,8.30
2023-05-24T23:21:52.272Z,8.30
2023-05-24T23:24:19.434Z,8.30
2023-05-24T23:26:46.556Z,8.20
2023-05-24T23:29:13.740Z,8.20
2023-05-24T23:31:40.921Z,8.20
2023-05-24T23:34:08.230Z,8.10
2023-05-24T23:36:36.505Z,8.10
2023-05-24T23:39:03.953Z,8.00
2023-05-24T23:41:31.101Z,8.00
2023-05-24T23:43:58.147Z,8.00
2023-05-24T23:46:25.253Z,8.00
2023-05-24T23:48:52.305Z,7.90
2023-05-24T23:51:20.204Z,7.90
2023-05-24T23:53:47.247Z,7.90
2023-05-24T23:56:14.296Z,7.90
2023-05-24T23:58:41.920Z,7.90
